sensor_id;sensor_type;location;lat;lon;timestamp;P1;durP1;ratioP1;P2;durP2;ratioP2
20110;SDS011;10216;42.658;23.248;2023-04-15T00:00:15;1.23;;;0.77;;
20110;SDS011;10216;42.658;23.248;2023-04-15T00:02:41;0.70;;;0.67;;
20110;SDS011;10216;42.658;23.248;2023-04-15T00:05:09;0.47;;;0.40;;
20110;SDS011;10216;42.658;23.248;2023-04-15T00:07:34;0.70;;;0.70;;
20110;SDS011;10216;42.658;23.248;2023-04-15T00:10:00;0.60;;;0.60;;
20110;SDS011;10216;42.658;23.248;2023-04-15T00:12:28;1.03;;;0.70;;
20110;SDS011;10216;42.658;23.248;2023-04-15T00:14:53;0.60;;;0.60;;
20110;SDS011;10216;42.658;23.248;2023-04-15T00:17:19;1.53;;;0.70;;
20110;SDS011;10216;42.658;23.248;2023-04-15T00:19:45;1.23;;;0.87;;
20110;SDS011;10216;42.658;23.248;2023-04-15T00:22:10;0.50;;;0.40;;
20110;SDS011;10216;42.658;23.248;2023-04-15T00:24:36;1.33;;;0.50;;
20110;SDS011;10216;42.658;23.248;2023-04-15T00:27:01;0.70;;;0.70;;
20110;SDS011;10216;42.658;23.248;2023-04-15T00:29:27;0.77;;;0.53;;
20110;SDS011;10216;42.658;23.248;2023-04-15T00:31:53;0.60;;;0.60;;
20110;SDS011;10216;42.658;23.248;2023-04-15T00:34:18;0.60;;;0.53;;
20110;SDS011;10216;42.658;23.248;2023-04-15T00:36:44;0.40;;;0.40;;
20110;SDS011;10216;42.658;23.248;2023-04-15T00:39:09;0.50;;;0.50;;
20110;SDS011;10216;42.658;23.248;2023-04-15T00:41:34;2.27;;;1.03;;
20110;SDS011;10216;42.658;23.248;2023-04-15T00:44:03;0.50;;;0.50;;
20110;SDS011;10216;42.658;23.248;2023-04-15T00:46:29;0.40;;;0.40;;
20110;SDS011;10216;42.658;23.248;2023-04-15T00:48:55;0.73;;;0.50;;
20110;SDS011;10216;42.658;23.248;2023-04-15T00:51:20;1.20;;;0.57;;
20110;SDS011;10216;42.658;23.248;2023-04-15T00:53:45;0.50;;;0.50;;
20110;SDS011;10216;42.658;23.248;2023-04-15T00:56:11;0.37;;;0.37;;
20110;SDS011;10216;42.658;23.248;2023-04-15T00:58:36;0.30;;;0.30;;
20110;SDS011;10216;42.658;23.248;2023-04-15T01:01:01;0.50;;;0.50;;
20110;SDS011;10216;42.658;23.248;2023-04-15T01:03:28;1.67;;;0.63;;
20110;SDS011;10216;42.658;23.248;2023-04-15T01:05:53;0.63;;;0.57;;
20110;SDS011;10216;42.658;23.248;2023-04-15T01:08:25;0.70;;;0.70;;
20110;SDS011;10216;42.658;23.248;2023-04-15T01:10:51;1.87;;;1.00;;
20110;SDS011;10216;42.658;23.248;2023-04-15T01:13:17;0.50;;;0.50;;
20110;SDS011;10216;42.658;23.248;2023-04-15T01:15:43;0.60;;;0.50;;
20110;SDS011;10216;42.658;23.248;2023-04-15T01:18:08;0.70;;;0.70;;
20110;SDS011;10216;42.658;23.248;2023-04-15T01:20:34;0.53;;;0.50;;
20110;SDS011;10216;42.658;23.248;2023-04-15T01:22:59;1.87;;;0.80;;
20110;SDS011;10216;42.658;23.248;2023-04-15T01:25:34;0.50;;;0.50;;
20110;SDS011;10216;42.658;23.248;2023-04-15T01:27:59;1.60;;;0.77;;
20110;SDS011;10216;42.658;23.248;2023-04-15T01:30:24;0.40;;;0.40;;
20110;SDS011;10216;42.658;23.248;2023-04-15T01:32:51;0.60;;;0.60;;
20110;SDS011;10216;42.658;23.248;2023-04-15T01:35:16;1.80;;;0.47;;
20110;SDS011;10216;42.658;23.248;2023-04-15T01:37:42;1.03;;;0.40;;
20110;SDS011;10216;42.658;23.248;2023-04-15T01:40:10;0.77;;;0.50;;
20110;SDS011;10216;42.658;23.248;2023-04-15T01:42:35;0.47;;;0.47;;
20110;SDS011;10216;42.658;23.248;2023-04-15T01:45:01;0.70;;;0.43;;
20110;SDS011;10216;42.658;23.248;2023-04-15T01:47:26;3.40;;;0.73;;
20110;SDS011;10216;42.658;23.248;2023-04-15T01:49:51;0.60;;;0.53;;
20110;SDS011;10216;42.658;23.248;2023-04-15T01:52:17;1.70;;;0.70;;
20110;SDS011;10216;42.658;23.248;2023-04-15T01:54:43;0.50;;;0.50;;
20110;SDS011;10216;42.658;23.248;2023-04-15T01:57:09;0.50;;;0.40;;
20110;SDS011;10216;42.658;23.248;2023-04-15T01:59:34;0.50;;;0.50;;
20110;SDS011;10216;42.658;23.248;2023-04-15T02:02:00;2.23;;;0.57;;
20110;SDS011;10216;42.658;23.248;2023-04-15T02:04:25;0.60;;;0.40;;
20110;SDS011;10216;42.658;23.248;2023-04-15T02:06:51;0.37;;;0.30;;
20110;SDS011;10216;42.658;23.248;2023-04-15T02:09:17;0.60;;;0.40;;
20110;SDS011;10216;42.658;23.248;2023-04-15T02:11:42;0.47;;;0.47;;
20110;SDS011;10216;42.658;23.248;2023-04-15T02:14:07;0.50;;;0.50;;
20110;SDS011;10216;42.658;23.248;2023-04-15T02:16:33;0.20;;;0.20;;
20110;SDS011;10216;42.658;23.248;2023-04-15T02:18:58;0.20;;;0.20;;
20110;SDS011;10216;42.658;23.248;2023-04-15T02:21:25;0.43;;;0.30;;
20110;SDS011;10216;42.658;23.248;2023-04-15T02:23:50;0.30;;;0.30;;
20110;SDS011;10216;42.658;23.248;2023-04-15T02:26:17;0.20;;;0.20;;
20110;SDS011;10216;42.658;23.248;2023-04-15T02:28:43;0.30;;;0.30;;
20110;SDS011;10216;42.658;23.248;2023-04-15T02:31:08;0.63;;;0.40;;
20110;SDS011;10216;42.658;23.248;2023-04-15T02:33:33;0.83;;;0.80;;
20110;SDS011;10216;42.658;23.248;2023-04-15T02:35:59;0.63;;;0.63;;
20110;SDS011;10216;42.658;23.248;2023-04-15T02:38:24;1.87;;;0.40;;
20110;SDS011;10216;42.658;23.248;2023-04-15T02:40:49;0.40;;;0.40;;
20110;SDS011;10216;42.658;23.248;2023-04-15T02:43:15;1.07;;;0.60;;
20110;SDS011;10216;42.658;23.248;2023-04-15T02:45:41;0.63;;;0.60;;
20110;SDS011;10216;42.658;23.248;2023-04-15T02:48:07;0.57;;;0.57;;
20110;SDS011;10216;42.658;23.248;2023-04-15T02:50:32;0.20;;;0.20;;
20110;SDS011;10216;42.658;23.248;2023-04-15T02:52:57;0.80;;;0.40;;
20110;SDS011;10216;42.658;23.248;2023-04-15T02:55:25;0.40;;;0.40;;
20110;SDS011;10216;42.658;23.248;2023-04-15T02:57:50;0.40;;;0.40;;
20110;SDS011;10216;42.658;23.248;2023-04-15T03:00:16;0.30;;;0.30;;
20110;SDS011;10216;42.658;23.248;2023-04-15T03:02:41;0.40;;;0.30;;
20110;SDS011;10216;42.658;23.248;2023-04-15T03:05:10;0.20;;;0.20;;
20110;SDS011;10216;42.658;23.248;2023-04-15T03:07:35;1.00;;;0.60;;
20110;SDS011;10216;42.658;23.248;2023-04-15T03:10:00;0.87;;;0.67;;
20110;SDS011;10216;42.658;23.248;2023-04-15T03:12:26;0.43;;;0.43;;
20110;SDS011;10216;42.658;23.248;2023-04-15T03:14:52;0.70;;;0.53;;
20110;SDS011;10216;42.658;23.248;2023-04-15T03:17:17;0.70;;;0.60;;
20110;SDS011;10216;42.658;23.248;2023-04-15T03:19:43;0.20;;;0.20;;
20110;SDS011;10216;42.658;23.248;2023-04-15T03:22:08;0.63;;;0.63;;
20110;SDS011;10216;42.658;23.248;2023-04-15T03:24:33;0.57;;;0.53;;
20110;SDS011;10216;42.658;23.248;2023-04-15T03:26:58;0.37;;;0.30;;
20110;SDS011;10216;42.658;23.248;2023-04-15T03:29:24;0.57;;;0.57;;
20110;SDS011;10216;42.658;23.248;2023-04-15T03:31:49;1.27;;;0.67;;
20110;SDS011;10216;42.658;23.248;2023-04-15T03:34:14;1.10;;;1.00;;
20110;SDS011;10216;42.658;23.248;2023-04-15T03:36:40;1.53;;;0.87;;
20110;SDS011;10216;42.658;23.248;2023-04-15T03:39:05;1.00;;;0.90;;
20110;SDS011;10216;42.658;23.248;2023-04-15T03:41:30;1.03;;;0.97;;
20110;SDS011;10216;42.658;23.248;2023-04-15T03:43:56;0.83;;;0.63;;
20110;SDS011;10216;42.658;23.248;2023-04-15T03:46:22;0.73;;;0.60;;
20110;SDS011;10216;42.658;23.248;2023-04-15T03:48:47;1.90;;;0.80;;
20110;SDS011;10216;42.658;23.248;2023-04-15T03:51:13;0.77;;;0.77;;
20110;SDS011;10216;42.658;23.248;2023-04-15T03:53:39;0.50;;;0.43;;
20110;SDS011;10216;42.658;23.248;2023-04-15T03:56:04;0.77;;;0.77;;
20110;SDS011;10216;42.658;23.248;2023-04-15T03:58:29;0.80;;;0.60;;
20110;SDS011;10216;42.658;23.248;2023-04-15T04:00:55;0.43;;;0.43;;
20110;SDS011;10216;42.658;23.248;2023-04-15T04:03:20;0.60;;;0.60;;
20110;SDS011;10216;42.658;23.248;2023-04-15T04:05:45;0.63;;;0.63;;
20110;SDS011;10216;42.658;23.248;2023-04-15T04:08:10;0.47;;;0.43;;
20110;SDS011;10216;42.658;23.248;2023-04-15T04:10:37;1.73;;;1.63;;
20110;SDS011;10216;42.658;23.248;2023-04-15T04:13:03;0.77;;;0.40;;
20110;SDS011;10216;42.658;23.248;2023-04-15T04:15:28;1.07;;;1.00;;
20110;SDS011;10216;42.658;23.248;2023-04-15T04:17:53;0.80;;;0.77;;
20110;SDS011;10216;42.658;23.248;2023-04-15T04:20:18;0.70;;;0.70;;
20110;SDS011;10216;42.658;23.248;2023-04-15T04:22:44;0.80;;;0.80;;
20110;SDS011;10216;42.658;23.248;2023-04-15T04:25:09;0.47;;;0.47;;
20110;SDS011;10216;42.658;23.248;2023-04-15T04:27:35;0.60;;;0.60;;
20110;SDS011;10216;42.658;23.248;2023-04-15T04:30:00;0.37;;;0.37;;
20110;SDS011;10216;42.658;23.248;2023-04-15T04:32:26;0.80;;;0.80;;
20110;SDS011;10216;42.658;23.248;2023-04-15T04:34:51;1.17;;;0.70;;
20110;SDS011;10216;42.658;23.248;2023-04-15T04:37:16;0.90;;;0.53;;
20110;SDS011;10216;42.658;23.248;2023-04-15T04:39:41;0.43;;;0.43;;
20110;SDS011;10216;42.658;23.248;2023-04-15T04:42:07;0.67;;;0.40;;
20110;SDS011;10216;42.658;23.248;2023-04-15T04:44:32;0.50;;;0.50;;
20110;SDS011;10216;42.658;23.248;2023-04-15T04:46:57;1.13;;;0.70;;
20110;SDS011;10216;42.658;23.248;2023-04-15T04:49:22;0.93;;;0.50;;
20110;SDS011;10216;42.658;23.248;2023-04-15T04:51:47;0.60;;;0.60;;
20110;SDS011;10216;42.658;23.248;2023-04-15T04:54:13;0.40;;;0.40;;
20110;SDS011;10216;42.658;23.248;2023-04-15T04:56:38;0.87;;;0.50;;
20110;SDS011;10216;42.658;23.248;2023-04-15T04:59:04;1.00;;;0.90;;
20110;SDS011;10216;42.658;23.248;2023-04-15T05:01:29;2.00;;;1.37;;
20110;SDS011;10216;42.658;23.248;2023-04-15T05:03:54;1.90;;;1.40;;
20110;SDS011;10216;42.658;23.248;2023-04-15T05:06:20;2.53;;;1.57;;
20110;SDS011;10216;42.658;23.248;2023-04-15T05:08:45;4.30;;;2.00;;
20110;SDS011;10216;42.658;23.248;2023-04-15T05:11:11;1.63;;;1.43;;
20110;SDS011;10216;42.658;23.248;2023-04-15T05:13:37;1.83;;;1.53;;
20110;SDS011;10216;42.658;23.248;2023-04-15T05:16:03;3.53;;;1.90;;
20110;SDS011;10216;42.658;23.248;2023-04-15T05:18:28;2.10;;;1.67;;
20110;SDS011;10216;42.658;23.248;2023-04-15T05:20:54;4.67;;;1.93;;
20110;SDS011;10216;42.658;23.248;2023-04-15T05:23:19;3.37;;;1.70;;
20110;SDS011;10216;42.658;23.248;2023-04-15T05:25:44;1.97;;;1.80;;
20110;SDS011;10216;42.658;23.248;2023-04-15T05:28:10;3.30;;;2.13;;
20110;SDS011;10216;42.658;23.248;2023-04-15T05:30:35;2.73;;;1.63;;
20110;SDS011;10216;42.658;23.248;2023-04-15T05:33:00;2.47;;;2.00;;
20110;SDS011;10216;42.658;23.248;2023-04-15T05:35:25;5.80;;;2.03;;
20110;SDS011;10216;42.658;23.248;2023-04-15T05:37:51;2.30;;;1.50;;
20110;SDS011;10216;42.658;23.248;2023-04-15T05:40:16;3.30;;;1.90;;
20110;SDS011;10216;42.658;23.248;2023-04-15T05:42:41;2.93;;;2.17;;
20110;SDS011;10216;42.658;23.248;2023-04-15T05:45:07;2.27;;;1.53;;
20110;SDS011;10216;42.658;23.248;2023-04-15T05:47:34;2.53;;;1.77;;
20110;SDS011;10216;42.658;23.248;2023-04-15T05:49:59;2.07;;;1.90;;
20110;SDS011;10216;42.658;23.248;2023-04-15T05:52:24;2.70;;;2.33;;
20110;SDS011;10216;42.658;23.248;2023-04-15T05:54:50;4.57;;;2.67;;
20110;SDS011;10216;42.658;23.248;2023-04-15T05:57:15;4.80;;;2.27;;
20110;SDS011;10216;42.658;23.248;2023-04-15T05:59:40;4.00;;;2.13;;
20110;SDS011;10216;42.658;23.248;2023-04-15T06:02:06;1.93;;;1.83;;
20110;SDS011;10216;42.658;23.248;2023-04-15T06:04:32;4.73;;;2.23;;
20110;SDS011;10216;42.658;23.248;2023-04-15T06:06:59;4.20;;;2.60;;
20110;SDS011;10216;42.658;23.248;2023-04-15T06:09:25;3.53;;;2.50;;
20110;SDS011;10216;42.658;23.248;2023-04-15T06:11:50;4.10;;;2.90;;
20110;SDS011;10216;42.658;23.248;2023-04-15T06:14:15;4.10;;;3.13;;
20110;SDS011;10216;42.658;23.248;2023-04-15T06:16:41;2.90;;;2.30;;
20110;SDS011;10216;42.658;23.248;2023-04-15T06:19:06;2.77;;;1.30;;
20110;SDS011;10216;42.658;23.248;2023-04-15T06:21:31;3.73;;;2.13;;
20110;SDS011;10216;42.658;23.248;2023-04-15T06:23:57;3.17;;;2.37;;
20110;SDS011;10216;42.658;23.248;2023-04-15T06:26:22;5.03;;;2.30;;
20110;SDS011;10216;42.658;23.248;2023-04-15T06:28:48;1.53;;;1.30;;
20110;SDS011;10216;42.658;23.248;2023-04-15T06:31:13;1.93;;;1.60;;
20110;SDS011;10216;42.658;23.248;2023-04-15T06:33:38;6.40;;;1.80;;
20110;SDS011;10216;42.658;23.248;2023-04-15T06:36:03;3.17;;;1.20;;
20110;SDS011;10216;42.658;23.248;2023-04-15T06:38:29;3.00;;;1.90;;
20110;SDS011;10216;42.658;23.248;2023-04-15T06:40:54;2.67;;;1.70;;
20110;SDS011;10216;42.658;23.248;2023-04-15T06:43:19;2.30;;;1.60;;
20110;SDS011;10216;42.658;23.248;2023-04-15T06:45:45;2.67;;;1.47;;
20110;SDS011;10216;42.658;23.248;2023-04-15T06:48:10;2.43;;;1.30;;
20110;SDS011;10216;42.658;23.248;2023-04-15T06:50:35;2.63;;;1.73;;
20110;SDS011;10216;42.658;23.248;2023-04-15T06:53:01;2.40;;;1.30;;
20110;SDS011;10216;42.658;23.248;2023-04-15T06:55:27;2.43;;;1.00;;
20110;SDS011;10216;42.658;23.248;2023-04-15T06:57:52;2.20;;;1.07;;
20110;SDS011;10216;42.658;23.248;2023-04-15T07:00:17;0.20;;;0.20;;
20110;SDS011;10216;42.658;23.248;2023-04-15T07:02:43;0.40;;;0.27;;
20110;SDS011;10216;42.658;23.248;2023-04-15T07:05:08;0.30;;;0.30;;
20110;SDS011;10216;42.658;23.248;2023-04-15T07:07:34;0.40;;;0.40;;
20110;SDS011;10216;42.658;23.248;2023-04-15T07:10:00;0.40;;;0.40;;
20110;SDS011;10216;42.658;23.248;2023-04-15T07:12:27;0.27;;;0.27;;
20110;SDS011;10216;42.658;23.248;2023-04-15T07:14:52;0.53;;;0.40;;
20110;SDS011;10216;42.658;23.248;2023-04-15T07:17:17;0.43;;;0.40;;
20110;SDS011;10216;42.658;23.248;2023-04-15T07:19:43;0.30;;;0.30;;
20110;SDS011;10216;42.658;23.248;2023-04-15T07:22:08;0.40;;;0.40;;
20110;SDS011;10216;42.658;23.248;2023-04-15T07:24:33;0.20;;;0.20;;
20110;SDS011;10216;42.658;23.248;2023-04-15T07:26:58;0.20;;;0.20;;
20110;SDS011;10216;42.658;23.248;2023-04-15T07:29:24;0.30;;;0.30;;
20110;SDS011;10216;42.658;23.248;2023-04-15T07:31:49;0.60;;;0.60;;
20110;SDS011;10216;42.658;23.248;2023-04-15T07:34:15;1.33;;;0.30;;
20110;SDS011;10216;42.658;23.248;2023-04-15T07:36:40;2.07;;;0.53;;
20110;SDS011;10216;42.658;23.248;2023-04-15T07:39:06;0.30;;;0.30;;
20110;SDS011;10216;42.658;23.248;2023-04-15T07:41:31;1.23;;;0.40;;
20110;SDS011;10216;42.658;23.248;2023-04-15T07:43:57;0.77;;;0.50;;
20110;SDS011;10216;42.658;23.248;2023-04-15T07:46:22;1.17;;;0.50;;
20110;SDS011;10216;42.658;23.248;2023-04-15T07:48:48;0.40;;;0.30;;
20110;SDS011;10216;42.658;23.248;2023-04-15T07:51:13;2.00;;;0.50;;
20110;SDS011;10216;42.658;23.248;2023-04-15T07:53:39;2.80;;;0.50;;
20110;SDS011;10216;42.658;23.248;2023-04-15T07:56:04;1.10;;;0.40;;
20110;SDS011;10216;42.658;23.248;2023-04-15T07:58:29;1.90;;;0.47;;
20110;SDS011;10216;42.658;23.248;2023-04-15T08:00:57;1.20;;;0.80;;
20110;SDS011;10216;42.658;23.248;2023-04-15T08:03:22;0.57;;;0.57;;
20110;SDS011;10216;42.658;23.248;2023-04-15T08:05:47;1.00;;;0.70;;
20110;SDS011;10216;42.658;23.248;2023-04-15T08:08:13;0.83;;;0.40;;
20110;SDS011;10216;42.658;23.248;2023-04-15T08:10:39;0.33;;;0.33;;
20110;SDS011;10216;42.658;23.248;2023-04-15T08:13:05;1.40;;;0.50;;
20110;SDS011;10216;42.658;23.248;2023-04-15T08:15:30;0.30;;;0.30;;
20110;SDS011;10216;42.658;23.248;2023-04-15T08:17:56;0.50;;;0.50;;
20110;SDS011;10216;42.658;23.248;2023-04-15T08:20:23;0.30;;;0.30;;
20110;SDS011;10216;42.658;23.248;2023-04-15T08:22:48;0.57;;;0.50;;
20110;SDS011;10216;42.658;23.248;2023-04-15T08:25:15;1.07;;;0.87;;
20110;SDS011;10216;42.658;23.248;2023-04-15T08:27:41;0.30;;;0.30;;
20110;SDS011;10216;42.658;23.248;2023-04-15T08:30:06;0.47;;;0.37;;
20110;SDS011;10216;42.658;23.248;2023-04-15T08:32:32;0.40;;;0.40;;
20110;SDS011;10216;42.658;23.248;2023-04-15T08:34:57;0.30;;;0.30;;
20110;SDS011;10216;42.658;23.248;2023-04-15T08:37:23;1.03;;;0.60;;
20110;SDS011;10216;42.658;23.248;2023-04-15T08:39:48;0.40;;;0.40;;
20110;SDS011;10216;42.658;23.248;2023-04-15T08:42:16;0.47;;;0.47;;
20110;SDS011;10216;42.658;23.248;2023-04-15T08:44:44;0.30;;;0.30;;
20110;SDS011;10216;42.658;23.248;2023-04-15T08:47:11;0.20;;;0.20;;
20110;SDS011;10216;42.658;23.248;2023-04-15T08:49:38;0.20;;;0.20;;
20110;SDS011;10216;42.658;23.248;2023-04-15T08:52:03;0.30;;;0.30;;
20110;SDS011;10216;42.658;23.248;2023-04-15T08:54:29;1.13;;;0.40;;
20110;SDS011;10216;42.658;23.248;2023-04-15T08:56:56;1.33;;;0.30;;
20110;SDS011;10216;42.658;23.248;2023-04-15T08:59:21;0.63;;;0.43;;
20110;SDS011;10216;42.658;23.248;2023-04-15T09:01:48;0.50;;;0.30;;
20110;SDS011;10216;42.658;23.248;2023-04-15T09:04:15;0.27;;;0.27;;
20110;SDS011;10216;42.658;23.248;2023-04-15T09:06:40;1.40;;;0.40;;
20110;SDS011;10216;42.658;23.248;2023-04-15T09:09:06;0.80;;;0.40;;
20110;SDS011;10216;42.658;23.248;2023-04-15T09:11:31;0.27;;;0.27;;
20110;SDS011;10216;42.658;23.248;2023-04-15T09:13:56;0.33;;;0.20;;
20110;SDS011;10216;42.658;23.248;2023-04-15T09:16:21;0.17;;;0.17;;
20110;SDS011;10216;42.658;23.248;2023-04-15T09:18:47;0.10;;;0.10;;
20110;SDS011;10216;42.658;23.248;2023-04-15T09:21:13;0.27;;;0.27;;
20110;SDS011;10216;42.658;23.248;2023-04-15T09:23:39;0.20;;;0.20;;
20110;SDS011;10216;42.658;23.248;2023-04-15T09:26:05;0.30;;;0.30;;
20110;SDS011;10216;42.658;23.248;2023-04-15T09:28:32;0.30;;;0.30;;
20110;SDS011;10216;42.658;23.248;2023-04-15T09:31:00;0.53;;;0.40;;
20110;SDS011;10216;42.658;23.248;2023-04-15T09:33:26;0.20;;;0.20;;
20110;SDS011;10216;42.658;23.248;2023-04-15T09:35:55;0.20;;;0.20;;
20110;SDS011;10216;42.658;23.248;2023-04-15T09:38:21;0.30;;;0.30;;
20110;SDS011;10216;42.658;23.248;2023-04-15T09:40:46;0.47;;;0.27;;
20110;SDS011;10216;42.658;23.248;2023-04-15T09:43:12;0.50;;;0.30;;
20110;SDS011;10216;42.658;23.248;2023-04-15T09:45:37;0.93;;;0.20;;
20110;SDS011;10216;42.658;23.248;2023-04-15T09:50:40;0.33;;;0.20;;
20110;SDS011;10216;42.658;23.248;2023-04-15T09:53:08;0.30;;;0.20;;
20110;SDS011;10216;42.658;23.248;2023-04-15T09:55:33;0.77;;;0.40;;
20110;SDS011;10216;42.658;23.248;2023-04-15T09:57:58;0.77;;;0.20;;
20110;SDS011;10216;42.658;23.248;2023-04-15T10:00:24;1.57;;;0.50;;
20110;SDS011;10216;42.658;23.248;2023-04-15T10:02:49;0.67;;;0.17;;
20110;SDS011;10216;42.658;23.248;2023-04-15T10:05:15;0.30;;;0.30;;
20110;SDS011;10216;42.658;23.248;2023-04-15T10:07:43;0.53;;;0.20;;
20110;SDS011;10216;42.658;23.248;2023-04-15T10:10:09;0.30;;;0.30;;
20110;SDS011;10216;42.658;23.248;2023-04-15T10:12:38;0.20;;;0.20;;
20110;SDS011;10216;42.658;23.248;2023-04-15T10:15:04;1.20;;;0.40;;
20110;SDS011;10216;42.658;23.248;2023-04-15T10:17:31;0.30;;;0.30;;
20110;SDS011;10216;42.658;23.248;2023-04-15T10:20:01;0.40;;;0.30;;
20110;SDS011;10216;42.658;23.248;2023-04-15T10:22:27;0.33;;;0.33;;
20110;SDS011;10216;42.658;23.248;2023-04-15T10:24:52;0.20;;;0.20;;
20110;SDS011;10216;42.658;23.248;2023-04-15T10:27:18;0.40;;;0.40;;
20110;SDS011;10216;42.658;23.248;2023-04-15T10:29:44;0.20;;;0.20;;
20110;SDS011;10216;42.658;23.248;2023-04-15T10:32:10;0.30;;;0.30;;
20110;SDS011;10216;42.658;23.248;2023-04-15T10:34:35;0.20;;;0.20;;
20110;SDS011;10216;42.658;23.248;2023-04-15T10:37:01;0.20;;;0.20;;
20110;SDS011;10216;42.658;23.248;2023-04-15T10:42:08;0.77;;;0.40;;
20110;SDS011;10216;42.658;23.248;2023-04-15T10:44:34;1.23;;;0.40;;
20110;SDS011;10216;42.658;23.248;2023-04-15T10:47:03;0.30;;;0.30;;
20110;SDS011;10216;42.658;23.248;2023-04-15T10:49:29;0.20;;;0.20;;
20110;SDS011;10216;42.658;23.248;2023-04-15T10:51:59;0.50;;;0.50;;
20110;SDS011;10216;42.658;23.248;2023-04-15T10:59:28;0.40;;;0.40;;
20110;SDS011;10216;42.658;23.248;2023-04-15T11:02:01;0.57;;;0.40;;
20110;SDS011;10216;42.658;23.248;2023-04-15T11:07:12;0.90;;;0.37;;
20110;SDS011;10216;42.658;23.248;2023-04-15T11:09:37;1.17;;;0.30;;
20110;SDS011;10216;42.658;23.248;2023-04-15T11:12:08;0.30;;;0.30;;
20110;SDS011;10216;42.658;23.248;2023-04-15T11:14:38;0.40;;;0.40;;
20110;SDS011;10216;42.658;23.248;2023-04-15T11:17:04;0.63;;;0.60;;
20110;SDS011;10216;42.658;23.248;2023-04-15T11:19:35;1.17;;;0.50;;
20110;SDS011;10216;42.658;23.248;2023-04-15T11:22:08;0.37;;;0.30;;
20110;SDS011;10216;42.658;23.248;2023-04-15T11:24:33;0.33;;;0.30;;
20110;SDS011;10216;42.658;23.248;2023-04-15T11:27:00;0.43;;;0.20;;
20110;SDS011;10216;42.658;23.248;2023-04-15T11:29:29;0.83;;;0.40;;
20110;SDS011;10216;42.658;23.248;2023-04-15T11:32:05;0.37;;;0.30;;
20110;SDS011;10216;42.658;23.248;2023-04-15T11:34:31;3.07;;;0.43;;
20110;SDS011;10216;42.658;23.248;2023-04-15T11:36:56;0.83;;;0.33;;
20110;SDS011;10216;42.658;23.248;2023-04-15T11:39:22;0.93;;;0.70;;
20110;SDS011;10216;42.658;23.248;2023-04-15T11:41:49;0.73;;;0.40;;
20110;SDS011;10216;42.658;23.248;2023-04-15T11:44:15;0.23;;;0.23;;
20110;SDS011;10216;42.658;23.248;2023-04-15T11:46:41;0.30;;;0.30;;
20110;SDS011;10216;42.658;23.248;2023-04-15T11:49:07;0.57;;;0.40;;
20110;SDS011;10216;42.658;23.248;2023-04-15T11:51:32;0.30;;;0.30;;
20110;SDS011;10216;42.658;23.248;2023-04-15T11:53:58;0.20;;;0.20;;
20110;SDS011;10216;42.658;23.248;2023-04-15T11:56:23;1.30;;;0.40;;
20110;SDS011;10216;42.658;23.248;2023-04-15T11:58:53;0.57;;;0.40;;
20110;SDS011;10216;42.658;23.248;2023-04-15T12:01:20;0.47;;;0.30;;
20110;SDS011;10216;42.658;23.248;2023-04-15T12:03:54;0.30;;;0.20;;
20110;SDS011;10216;42.658;23.248;2023-04-15T12:06:24;0.40;;;0.27;;
20110;SDS011;10216;42.658;23.248;2023-04-15T12:11:18;0.20;;;0.20;;
20110;SDS011;10216;42.658;23.248;2023-04-15T12:13:47;0.20;;;0.20;;
20110;SDS011;10216;42.658;23.248;2023-04-15T12:16:19;0.93;;;0.30;;
20110;SDS011;10216;42.658;23.248;2023-04-15T12:18:51;0.37;;;0.33;;
20110;SDS011;10216;42.658;23.248;2023-04-15T12:21:19;0.30;;;0.30;;
20110;SDS011;10216;42.658;23.248;2023-04-15T12:24:03;0.30;;;0.20;;
20110;SDS011;10216;42.658;23.248;2023-04-15T12:29:00;0.63;;;0.40;;
20110;SDS011;10216;42.658;23.248;2023-04-15T12:31:26;0.30;;;0.30;;
20110;SDS011;10216;42.658;23.248;2023-04-15T12:33:53;0.40;;;0.40;;
20110;SDS011;10216;42.658;23.248;2023-04-15T12:36:19;0.30;;;0.30;;
20110;SDS011;10216;42.658;23.248;2023-04-15T15:59:53;0.30;;;0.30;;
20110;SDS011;10216;42.658;23.248;2023-04-15T19:41:14;0.60;;;0.57;;
20110;SDS011;10216;42.658;23.248;2023-04-15T19:43:39;1.80;;;0.40;;
20110;SDS011;10216;42.658;23.248;2023-04-15T19:46:05;0.30;;;0.30;;
20110;SDS011;10216;42.658;23.248;2023-04-15T19:48:30;1.07;;;0.50;;
20110;SDS011;10216;42.658;23.248;2023-04-15T19:50:55;1.20;;;0.50;;
20110;SDS011;10216;42.658;23.248;2023-04-15T19:53:21;2.10;;;0.30;;
20110;SDS011;10216;42.658;23.248;2023-04-15T19:55:46;1.27;;;0.50;;
20110;SDS011;10216;42.658;23.248;2023-04-15T19:58:12;0.80;;;0.40;;
20110;SDS011;10216;42.658;23.248;2023-04-15T20:00:37;0.50;;;0.50;;
20110;SDS011;10216;42.658;23.248;2023-04-15T20:03:03;2.43;;;1.03;;
20110;SDS011;10216;42.658;23.248;2023-04-15T20:05:28;2.03;;;1.10;;
20110;SDS011;10216;42.658;23.248;2023-04-15T20:07:53;2.13;;;1.30;;
20110;SDS011;10216;42.658;23.248;2023-04-15T20:10:19;2.53;;;1.50;;
20110;SDS011;10216;42.658;23.248;2023-04-15T20:12:44;1.23;;;1.13;;
20110;SDS011;10216;42.658;23.248;2023-04-15T20:15:10;3.10;;;1.40;;
20110;SDS011;10216;42.658;23.248;2023-04-15T20:17:35;1.83;;;1.33;;
20110;SDS011;10216;42.658;23.248;2023-04-15T20:20:02;2.10;;;1.30;;
20110;SDS011;10216;42.658;23.248;2023-04-15T20:22:27;2.97;;;1.40;;
20110;SDS011;10216;42.658;23.248;2023-04-15T20:24:53;2.57;;;1.23;;
20110;SDS011;10216;42.658;23.248;2023-04-15T20:27:19;1.40;;;1.30;;
20110;SDS011;10216;42.658;23.248;2023-04-15T20:29:44;3.30;;;1.37;;
20110;SDS011;10216;42.658;23.248;2023-04-15T20:32:09;1.93;;;1.20;;
20110;SDS011;10216;42.658;23.248;2023-04-15T20:34:36;0.70;;;0.70;;
20110;SDS011;10216;42.658;23.248;2023-04-15T20:37:01;4.57;;;0.80;;
20110;SDS011;10216;42.658;23.248;2023-04-15T20:39:26;1.03;;;0.60;;
20110;SDS011;10216;42.658;23.248;2023-04-15T20:41:52;1.00;;;0.60;;
20110;SDS011;10216;42.658;23.248;2023-04-15T20:44:17;0.90;;;0.50;;
20110;SDS011;10216;42.658;23.248;2023-04-15T20:46:43;0.50;;;0.50;;
20110;SDS011;10216;42.658;23.248;2023-04-15T20:49:08;0.60;;;0.60;;
20110;SDS011;10216;42.658;23.248;2023-04-15T20:51:33;0.60;;;0.57;;
20110;SDS011;10216;42.658;23.248;2023-04-15T20:54:02;0.50;;;0.50;;
20110;SDS011;10216;42.658;23.248;2023-04-15T20:56:27;0.53;;;0.53;;
20110;SDS011;10216;42.658;23.248;2023-04-15T20:58:52;0.50;;;0.50;;
20110;SDS011;10216;42.658;23.248;2023-04-15T21:01:18;2.20;;;0.60;;
20110;SDS011;10216;42.658;23.248;2023-04-15T21:03:43;0.63;;;0.60;;
20110;SDS011;10216;42.658;23.248;2023-04-15T21:06:08;1.80;;;0.60;;
20110;SDS011;10216;42.658;23.248;2023-04-15T21:08:33;0.43;;;0.43;;
20110;SDS011;10216;42.658;23.248;2023-04-15T21:10:59;0.70;;;0.70;;
20110;SDS011;10216;42.658;23.248;2023-04-15T21:13:24;0.73;;;0.60;;
20110;SDS011;10216;42.658;23.248;2023-04-15T21:15:50;0.53;;;0.53;;
20110;SDS011;10216;42.658;23.248;2023-04-15T21:18:17;0.50;;;0.40;;
20110;SDS011;10216;42.658;23.248;2023-04-15T21:20:43;0.33;;;0.33;;
20110;SDS011;10216;42.658;23.248;2023-04-15T21:23:08;1.07;;;0.50;;
20110;SDS011;10216;42.658;23.248;2023-04-15T21:25:33;0.40;;;0.40;;
20110;SDS011;10216;42.658;23.248;2023-04-15T21:27:58;0.50;;;0.50;;
20110;SDS011;10216;42.658;23.248;2023-04-15T21:30:26;0.30;;;0.30;;
20110;SDS011;10216;42.658;23.248;2023-04-15T21:32:51;0.80;;;0.50;;
20110;SDS011;10216;42.658;23.248;2023-04-15T21:35:17;0.87;;;0.40;;
20110;SDS011;10216;42.658;23.248;2023-04-15T21:37:42;0.73;;;0.43;;
20110;SDS011;10216;42.658;23.248;2023-04-15T21:40:07;0.67;;;0.40;;
20110;SDS011;10216;42.658;23.248;2023-04-15T21:42:33;0.93;;;0.40;;